Home > Products > Valid Products > MTR

000
SAUS45 KABQ 291955
MTRTCS
METAR KTCS 291953Z AUTO VRB05KT 10SM CLR 30/M04 A3006 RMK AO2 SLP090
T03001039 TSNO





000
SAUS45 KABQ 291954
MTRCQC
METAR KCQC 291953Z AUTO 28017G21KT 10SM BKN110 23/M01 A3021 RMK AO2
SLP140 T02281006





000
SAUS45 KABQ 291952
MTRABQ
METAR KABQ 291952Z 00000KT 10SM SCT100 BKN160 BKN280 26/02 A3015 RMK
AO2 SLP127 VIRGA DSNT SW T02610017





000
SAUS45 KABQ 291857
MTRTCS
METAR KTCS 291853Z AUTO 17012G16KT 10SM CLR 29/M03 A3009 RMK AO2
SLP098 T02941033 TSNO





000
SAUS45 KABQ 291854
MTRCQC
METAR KCQC 291853Z AUTO 25008KT 10SM SCT085 BKN110 22/01 A3022 RMK
AO2 SLP144 T02170011





000
SAUS45 KABQ 291853
MTRABQ
METAR KABQ 291852Z 35005KT 10SM FEW100 BKN180 24/01 A3016 RMK AO2
SLP135 VIRGA SW-W T02440006





000
SAUS45 KABQ 291853
MTRABQ
METAR KABQ 291852Z 35005KT 10SM FEW100 BKN180 24/01 A3016 RMK AO2
SLP135 VIRGA SW-W T02440006





000
SAUS45 KABQ 291755
MTRCQC
METAR KCQC 291753Z AUTO 29013G19KT 10SM CLR 23/01 A3022 RMK AO2
SLP138 T02280006 10228 20067 50001





000
SAUS45 KABQ 291754
MTRTCS
METAR KTCS 291753Z AUTO VRB06KT 10SM CLR 29/M02 A3010 RMK AO2 SLP102
T02891017 10289 20150 58005 TSNO





000
SAUS45 KABQ 291753
MTRABQ
METAR KABQ 291752Z 35007KT 330V050 10SM FEW090 BKN180 BKN280 24/02
A3017 RMK AO2 SLP135 T02440017 10244 20156 58001





000
SAUS45 KABQ 291654
MTRTCS
METAR KTCS 291653Z AUTO 03006KT 10SM CLR 27/M01 A3012 RMK AO2 SLP107
T02721011 TSNO





000
SAUS45 KABQ 291654
MTRCQC
METAR KCQC 291653Z AUTO 28009G15KT 240V310 10SM CLR 21/01 A3023 RMK
AO2 SLP142 T02110006





000
SAUS45 KABQ 291652
MTRABQ
METAR KABQ 291652Z 35006KT 10SM FEW090 SCT200 BKN280 23/02 A3018 RMK
AO2 SLP140 T02280022





000
SAUS45 KABQ 291554
MTRTCS
METAR KTCS 291553Z AUTO 07005KT 10SM CLR 26/M02 A3012 RMK AO2 SLP110
T02561017 TSNO





000
SAUS45 KABQ 291554
MTRCQC
METAR KCQC 291553Z AUTO 32008KT 10SM CLR 20/02 A3022 RMK AO2 SLP142
T02000017





000
SAUS45 KABQ 291553
MTRABQ
METAR KABQ 291552Z 34009KT 10SM BKN230 BKN280 22/02 A3018 RMK AO2
SLP138 T02170022





000
SAUS45 KABQ 291458 COR
MTRCQC
METAR KCQC 291453Z AUTO 31009KT 10SM CLR 18/02 A3022 RMK AO2 SLP142
T01780022 51008





000
SAUS45 KABQ 291458 COR
MTRCQC
METAR KCQC 291453Z AUTO 31009KT 10SM CLR 18/02 A3022 RMK AO2 SLP142
T01780022 51008





000
SAUS45 KABQ 291456 COR
MTRCQC
METAR KCQC 291453Z AUTO 31009KT 10SM CLR 18/02 A3022 RMK AO2 SLP142
T01780022 51008





000
SAUS45 KABQ 291455 COR
MTRCQC
METAR KCQC 291453Z AUTO 31009KT 10SM CLR 18/02 A3022 RMK AO2 SLP142
T01780022 51008





000
SAUS45 KABQ 291454
MTRTCS
METAR KTCS 291453Z AUTO 35003KT 10SM CLR 23/M04 A3012 RMK AO2 SLP109
T02281039 51012 TSNO





000
SAUS45 KABQ 291454
MTRCQC
METAR KCQC 291453Z AUTO 31009KT 10SM CLR 18/02 A3022 RMK AO2 SLP142
T01780022 51008





000
SAUS45 KABQ 291453
MTRABQ
METAR KABQ 291452Z 02006KT 10SM FEW130 BKN230 BKN280 20/03 A3017 RMK
AO2 SLP140 T02000033 51014





000
SAUS45 KABQ 291355
MTRTCS
METAR KTCS 291353Z AUTO 03003KT 10SM CLR 21/M04 A3012 RMK AO2 SLP109
T02111044 TSNO





000
SAUS45 KABQ 291354
MTRCQC
METAR KCQC 291353Z AUTO 25003KT 10SM CLR 16/08 A3022 RMK AO2 SLP141
T01560083





000
SAUS45 KABQ 291353
MTRABQ
METAR KABQ 291352Z 36006KT 10SM FEW120 BKN240 17/03 A3016 RMK AO2
SLP135 T01720028





000
SAUS45 KABQ 291353
MTRABQ
METAR KABQ 291352Z 36006KT 10SM FEW120 BKN240 17/03 A3016 RMK AO2
SLP135 T01720028





000
SAUS45 KABQ 291254
MTRCQC
METAR KCQC 291253Z AUTO 00000KT 10SM CLR 11/09 A3020 RMK AO2 SLP139
T01110089





000
SAUS45 KABQ 291254
MTRCQC
METAR KCQC 291253Z AUTO 00000KT 10SM CLR 11/09 A3020 RMK AO2 SLP139
T01110089





000
SAUS45 KABQ 291254
MTRTCS
METAR KTCS 291253Z AUTO 34004KT 10SM CLR 17/M06 A3010 RMK AO2 SLP106
T01721061 TSNO





000
SAUS45 KABQ 291254
MTRTCS
METAR KTCS 291253Z AUTO 34004KT 10SM CLR 17/M06 A3010 RMK AO2 SLP106
T01721061 TSNO





000
SAUS45 KABQ 291252
MTRABQ
METAR KABQ 291252Z 36007KT 10SM SCT120 BKN250 16/03 A3015 RMK AO2
SLP129 T01610028





000
SAUS45 KABQ 291252
MTRABQ
METAR KABQ 291252Z 36007KT 10SM SCT120 BKN250 16/03 A3015 RMK AO2
SLP129 T01610028





000
SAUS45 KABQ 291155
MTRTCS
METAR KTCS 291153Z AUTO VRB03KT 10SM CLR 15/M07 A3008 RMK AO2 SLP103
T01501072 10228 20150 53013 TSNO





000
SAUS45 KABQ 291155
MTRTCS
METAR KTCS 291153Z AUTO VRB03KT 10SM CLR 15/M07 A3008 RMK AO2 SLP103
T01501072 10228 20150 53013 TSNO





000
SAUS45 KABQ 291154
MTRCQC
METAR KCQC 291153Z AUTO 04005KT 10SM FEW002 09/07 A3019 RMK AO2
SLP137 T00890072 10144 20067 53005





000
SAUS45 KABQ 291154
MTRCQC
METAR KCQC 291153Z AUTO 04005KT 10SM FEW002 09/07 A3019 RMK AO2
SLP137 T00890072 10144 20067 53005





000
SAUS45 KABQ 291152
MTRABQ
METAR KABQ 291152Z 33009KT 10SM SCT120 SCT250 16/03 A3013 RMK AO2
SLP121 T01560028 10217 20156 53010





000
SAUS45 KABQ 291149
MTRCQC
SPECI KCQC 291148Z AUTO 03004KT 3SM BR FEW002 09/08 A3019 RMK AO2





000
SAUS45 KABQ 291149
MTRCQC
SPECI KCQC 291148Z AUTO 03004KT 3SM BR FEW002 09/08 A3019 RMK AO2





000
SAUS45 KABQ 291147
MTRCQC
SPECI KCQC 291146Z AUTO 04004KT 1SM BR VV002 09/07 A3018 RMK AO2
T00890072





000
SAUS45 KABQ 291147
MTRCQC
SPECI KCQC 291146Z AUTO 04004KT 1SM BR VV002 09/07 A3018 RMK AO2
T00890072





000
SAUS45 KABQ 291143
MTRCQC
SPECI KCQC 291141Z AUTO 05003KT 1/4SM FG VV002 07/06 A3018 RMK AO2
T00720061





000
SAUS45 KABQ 291143
MTRCQC
SPECI KCQC 291141Z AUTO 05003KT 1/4SM FG VV002 07/06 A3018 RMK AO2
T00720061





000
SAUS45 KABQ 291135
MTRCQC
SPECI KCQC 291134Z AUTO 27003KT 1/4SM FG CLR 07/06 A3018 RMK AO2
T00670056





000
SAUS45 KABQ 291135
MTRCQC
SPECI KCQC 291134Z AUTO 27003KT 1/4SM FG CLR 07/06 A3018 RMK AO2
T00670056





000
SAUS45 KABQ 291133
MTRCQC
SPECI KCQC 291132Z AUTO 26003KT 1/2SM FG VV002 07/06 A3018 RMK AO2
T00670056





000
SAUS45 KABQ 291133
MTRCQC
SPECI KCQC 291132Z AUTO 26003KT 1/2SM FG VV002 07/06 A3018 RMK AO2
T00670056





000
SAUS45 KABQ 291126
MTRCQC
SPECI KCQC 291125Z AUTO 00000KT 1SM BR VV002 08/07 A3018 RMK AO2
T00780072





000
SAUS45 KABQ 291106
MTRCQC
SPECI KCQC 291105Z AUTO 12003KT 3SM BR CLR 08/07 A3018 RMK AO2
T00780067





000
SAUS45 KABQ 291106
MTRCQC
SPECI KCQC 291105Z AUTO 12003KT 3SM BR CLR 08/07 A3018 RMK AO2
T00780067





000
SAUS45 KABQ 291054
MTRCQC
METAR KCQC 291053Z AUTO 36003KT 1 1/4SM BR SCT001 08/08 A3017 RMK
AO2 VIS 1/2V4 SLP134 T00830078





000
SAUS45 KABQ 291054
MTRTCS
METAR KTCS 291053Z AUTO 32008KT 10SM CLR 18/M08 A3006 RMK AO2 SLP090
T01781078 TSNO





000
SAUS45 KABQ 291053
MTRABQ
METAR KABQ 291052Z 34003KT 10SM FEW140 16/02 A3011 RMK AO2 SLP117
T01560022





000
SAUS45 KABQ 291048
MTRCQC
SPECI KCQC 291047Z AUTO 36003KT 1 1/4SM BR SCT001 08/08 A3017 RMK
AO2





000
SAUS45 KABQ 291044
MTRCQC
SPECI KCQC 291043Z AUTO 36003KT 3/4SM BR VV001 09/08 A3017 RMK AO2
T00890078





000
SAUS45 KABQ 290958
MTRCQC
SPECI KCQC 290956Z AUTO 07006KT 1/4SM FG VV001 09/09 A3017 RMK AO2
T00940089





000
SAUS45 KABQ 290954
MTRTCS
METAR KTCS 290953Z AUTO 34006KT 10SM CLR 19/M07 A3005 RMK AO2 SLP088
T01891072 TSNO





000
SAUS45 KABQ 290954
MTRCQC
METAR KCQC 290953Z AUTO 07006KT 1SM BR VV001 09/08 A3017 RMK AO2
SLP127 T00940083





000
SAUS45 KABQ 290953
MTRCQC
SPECI KCQC 290951Z AUTO 08006KT 2 1/2SM BR FEW001 09/08 A3017 RMK
AO2





000
SAUS45 KABQ 290953
MTRABQ
METAR KABQ 290952Z 31003KT 10SM CLR 16/01 A3011 RMK AO2 SLP116
T01610011





000
SAUS45 KABQ 290953
MTRABQ
METAR KABQ 290952Z 31003KT 10SM CLR 16/01 A3011 RMK AO2 SLP116
T01610011





000
SAUS45 KABQ 290854
MTRCQC
METAR KCQC 290853Z AUTO 05003KT 10SM CLR 11/07 A3017 RMK AO2 SLP125
T01110072 51003





000
SAUS45 KABQ 290854
MTRTCS
METAR KTCS 290853Z AUTO 32007KT 10SM CLR 20/M08 A3003 RMK AO2 SLP079
T02001083 51003 TSNO





000
SAUS45 KABQ 290853
MTRABQ
METAR KABQ 290852Z 36009KT 10SM CLR 18/00 A3009 RMK AO2 SLP111
T01780000 51005





000
SAUS45 KABQ 290755
MTRTCS
METAR KTCS 290753Z AUTO 31009KT 10SM CLR 21/M09 A3003 RMK AO2 SLP077
T02111089 TSNO





000
SAUS45 KABQ 290754
MTRCQC
METAR KCQC 290753Z AUTO 06006KT 10SM CLR 12/03 A3017 RMK AO2 SLP123
T01220028





000
SAUS45 KABQ 290752
MTRABQ
METAR KABQ 290752Z 33007KT 10SM CLR 19/00 A3009 RMK AO2 SLP105
T01940000





000
SAUS45 KABQ 290655
MTRCQC
METAR KCQC 290653Z AUTO 02005KT 10SM CLR 14/M03 A3016 RMK AO2 SLP120
T01391028 402500083





000
SAUS45 KABQ 290655
MTRTCS
METAR KTCS 290653Z AUTO 31010KT 10SM CLR 22/M09 A3004 RMK AO2 SLP084
T02171089 403220139 TSNO





000
SAUS45 KABQ 290652
MTRABQ
METAR KABQ 290652Z 34007KT 10SM CLR 19/00 A3009 RMK AO2 SLP107
T01940000 403000122





000
SAUS45 KABQ 290554
MTRTCS
METAR KTCS 290553Z AUTO 30011KT 10SM CLR 23/M09 A3003 RMK AO2 SLP077
T02281094 10317 20228 51025 TSNO





000
SAUS45 KABQ 290554
MTRCQC
METAR KCQC 290553Z AUTO 36006KT 10SM CLR 14/M03 A3016 RMK AO2 SLP115
T01441028 10239 20139 51017





000
SAUS45 KABQ 290554
MTRCQC
METAR KCQC 290553Z AUTO 36006KT 10SM CLR 14/M03 A3016 RMK AO2 SLP115
T01441028 10239 20139 51017





000
SAUS45 KABQ 290554
MTRTCS
METAR KTCS 290553Z AUTO 30011KT 10SM CLR 23/M09 A3003 RMK AO2 SLP077
T02281094 10317 20228 51025 TSNO





000
SAUS45 KABQ 290552
MTRABQ
METAR KABQ 290552Z 34008KT 10SM CLR 22/M01 A3007 RMK AO2 SLP103
T02171006 10294 20217 51019





000
SAUS45 KABQ 290454
MTRTCS
METAR KTCS 290453Z AUTO 30011KT 10SM CLR 25/M09 A3001 RMK AO2 SLP070
T02501094 TSNO





000
SAUS45 KABQ 290454
MTRCQC
METAR KCQC 290453Z AUTO 35008KT 10SM CLR 15/M04 A3016 RMK AO2 SLP119
T01501044





000
SAUS45 KABQ 290454
MTRTCS
METAR KTCS 290453Z AUTO 30011KT 10SM CLR 25/M09 A3001 RMK AO2 SLP070
T02501094 TSNO





000
SAUS45 KABQ 290454
MTRCQC
METAR KCQC 290453Z AUTO 35008KT 10SM CLR 15/M04 A3016 RMK AO2 SLP119
T01501044





000
SAUS45 KABQ 290453
MTRABQ
METAR KABQ 290452Z 01006KT 10SM CLR 22/M01 A3007 RMK AO2 SLP099
T02221006





000
SAUS45 KABQ 290453
MTRABQ
METAR KABQ 290452Z 01006KT 10SM CLR 22/M01 A3007 RMK AO2 SLP099
T02221006





000
SAUS45 KABQ 290354
MTRTCS
METAR KTCS 290353Z AUTO 29010KT 10SM CLR 26/M08 A2998 RMK AO2 SLP061
T02561083 TSNO





000
SAUS45 KABQ 290354
MTRCQC
METAR KCQC 290353Z AUTO 33010KT 10SM CLR 16/M06 A3013 RMK AO2 SLP108
T01611056





000
SAUS45 KABQ 290354
MTRCQC
METAR KCQC 290353Z AUTO 33010KT 10SM CLR 16/M06 A3013 RMK AO2 SLP108
T01611056





000
SAUS45 KABQ 290354
MTRTCS
METAR KTCS 290353Z AUTO 29010KT 10SM CLR 26/M08 A2998 RMK AO2 SLP061
T02561083 TSNO





000
SAUS45 KABQ 290352
MTRABQ
METAR KABQ 290352Z 36008KT 10SM CLR 24/M02 A3004 RMK AO2 SLP094
T02391017





000
SAUS45 KABQ 290254
MTRTCS
METAR KTCS 290253Z AUTO 27013KT 10SM CLR 28/M09 A2994 RMK AO2 SLP046
T02781089 53005 TSNO





000
SAUS45 KABQ 290254
MTRCQC
METAR KCQC 290253Z AUTO 33008KT 10SM CLR 17/M06 A3010 RMK AO2 SLP097
T01721061 53009





000
SAUS45 KABQ 290252
MTRABQ
METAR KABQ 290252Z 31008KT 10SM FEW140 24/M06 A3001 RMK AO2 SLP084
T02441056 53013





000
SAUS45 KABQ 290154
MTRTCS
METAR KTCS 290153Z AUTO 28011G18KT 10SM CLR 30/M10 A2992 RMK AO2
SLP039 T03001100 TSNO





000
SAUS45 KABQ 290154
MTRCQC
METAR KCQC 290153Z AUTO 29011KT 10SM CLR 20/M08 A3008 RMK AO2 SLP088
T02001078





000
SAUS45 KABQ 290153
MTRABQ
METAR KABQ 290152Z 28012KT 10SM FEW140 27/M11 A2998 RMK AO2 SLP074
T02721106





000
SAUS45 KABQ 290058 COR
MTRCQC
METAR KCQC 290053Z AUTO 31013G21KT 10SM CLR 23/M07 A3006 RMK AO2
SLP087 T02331072





000
SAUS45 KABQ 290058 COR
MTRCQC
METAR KCQC 290053Z AUTO 31013G21KT 10SM CLR 23/M07 A3006 RMK AO2
SLP087 T02331072





000
SAUS45 KABQ 290056 COR
MTRCQC
METAR KCQC 290053Z AUTO 31013G21KT 10SM CLR 23/M07 A3006 RMK AO2
SLP087 T02331072





000
SAUS45 KABQ 290056 COR
MTRCQC
METAR KCQC 290053Z AUTO 31013G21KT 10SM CLR 23/M07 A3006 RMK AO2
SLP087 T02331072





000
SAUS45 KABQ 290055 COR
MTRCQC
METAR KCQC 290053Z AUTO 31013G21KT 10SM CLR 23/M07 A3006 RMK AO2
SLP087 T02331072





000
SAUS45 KABQ 290055 COR
MTRCQC
METAR KCQC 290053Z AUTO 31013G21KT 10SM CLR 23/M07 A3006 RMK AO2
SLP087 T02331072





000
SAUS45 KABQ 290054
MTRCQC
METAR KCQC 290053Z AUTO 31013G21KT 10SM CLR 23/M07 A3006 RMK AO2
SLP087 T02331072





000
SAUS45 KABQ 290054
MTRTCS
METAR KTCS 290053Z AUTO 00000KT 10SM CLR 31/M08 A2990 RMK AO2 SLP038
T03111083 TSNO





000
SAUS45 KABQ 290054
MTRTCS
METAR KTCS 290053Z AUTO 00000KT 10SM CLR 31/M08 A2990 RMK AO2 SLP038
T03111083 TSNO





000
SAUS45 KABQ 290053
MTRABQ
METAR KABQ 290052Z 27015KT 10SM FEW140 29/M10 A2997 RMK AO2 SLP069
T02891100





000
SAUS45 KABQ 290003 COR
MTRCQC
METAR KCQC 282353Z AUTO 27016G26KT 10SM CLR 24/M07 A3007 RMK AO2 PK
WND 29032/2256 SLP091 T02391067 10250 20222 56016





000
SAUS45 KABQ 290002 COR
MTRCQC
METAR KCQC 282353Z AUTO 27016G26KT 10SM CLR 24/M07 A3007 RMK AO2 PK
WND 29032/2256 SLP091 T02391067 10250 20222 56016





000
SAUS45 KABQ 290001 COR
MTRCQC
METAR KCQC 282353Z AUTO 27016G26KT 10SM CLR 24/M07 A3007 RMK AO2 PK
WND 29032/2256 SLP091 T02391067 10250 20222 56016





000
SAUS45 KABQ 282359 COR
MTRCQC
METAR KCQC 282353Z AUTO 27016G26KT 10SM CLR 24/M07 A3007 RMK AO2 PK
WND 29032/2256 SLP091 T02391067 10250 20222 56016





000
SAUS45 KABQ 282359 COR
MTRCQC
METAR KCQC 282353Z AUTO 27016G26KT 10SM CLR 24/M07 A3007 RMK AO2 PK
WND 29032/2256 SLP091 T02391067 10250 20222 56016





000
SAUS45 KABQ 282358 COR
MTRCQC
METAR KCQC 282353Z AUTO 27016G26KT 10SM CLR 24/M07 A3007 RMK AO2 PK
WND 29032/2256 SLP091 T02391067 10250 20222 56016





000
SAUS45 KABQ 282356 COR
MTRCQC
METAR KCQC 282353Z AUTO 27016G26KT 10SM CLR 24/M07 A3007 RMK AO2 PK
WND 29032/2256 SLP091 T02391067 10250 20222 56016





000
SAUS45 KABQ 282355 COR
MTRCQC
METAR KCQC 282353Z AUTO 27016G26KT 10SM CLR 24/M07 A3007 RMK AO2 PK
WND 29032/2256 SLP091 T02391067 10250 20222 56016





000
SAUS45 KABQ 282355 COR
MTRCQC
METAR KCQC 282353Z AUTO 27016G26KT 10SM CLR 24/M07 A3007 RMK AO2 PK
WND 29032/2256 SLP091 T02391067 10250 20222 56016





000
SAUS45 KABQ 282355
MTRTCS
METAR KTCS 282353Z AUTO VRB05KT 10SM CLR 31/M09 A2992 RMK AO2 SLP049
T03111089 10322 20278 56020 TSNO





000
SAUS45 KABQ 282355
MTRTCS
METAR KTCS 282353Z AUTO VRB05KT 10SM CLR 31/M09 A2992 RMK AO2 SLP049
T03111089 10322 20278 56020 TSNO





000
SAUS45 KABQ 282354
MTRCQC
METAR KCQC 282353Z AUTO 27016G26KT 10SM CLR 24/M07 A3007 RMK AO2 PK
WND 29032/2256 SLP091 T02391067 10250 20222 56016





000
SAUS45 KABQ 282354
MTRCQC
METAR KCQC 282353Z AUTO 27016G26KT 10SM CLR 24/M07 A3007 RMK AO2 PK
WND 29032/2256 SLP091 T02391067 10250 20222 56016





000
SAUS45 KABQ 282353
MTRABQ
METAR KABQ 282352Z 28015KT 10SM FEW120 29/M11 A2997 RMK AO2 SLP069
T02941106 10300 20239 56025





000
SAUS45 KABQ 282353
MTRABQ
METAR KABQ 282352Z 28015KT 10SM FEW120 29/M11 A2997 RMK AO2 SLP069
T02941106 10300 20239 56025





000
SAUS45 KABQ 282254
MTRTCS
METAR KTCS 282253Z AUTO 16011KT 10SM CLR 32/M08 A2994 RMK AO2 SLP053
T03171078 TSNO





000
SAUS45 KABQ 282254
MTRCQC
METAR KCQC 282253Z AUTO 29021G31KT 10SM CLR 24/M07 A3008 RMK AO2 PK
WND 29031/2250 SLP099 T02391072





000
SAUS45 KABQ 282253
MTRABQ
METAR KABQ 282252Z 25014G23KT 10SM FEW120 29/M06 A2998 RMK AO2
SLP079 T02891061





000
SAUS45 KABQ 282158 COR
MTRCQC
METAR KCQC 282153Z AUTO 27022G26KT 10SM CLR 25/M07 A3010 RMK AO2 PK
WND 28031/2130 SLP101 T02501067





000
SAUS45 KABQ 282156 COR
MTRCQC
METAR KCQC 282153Z AUTO 27022G26KT 10SM CLR 25/M07 A3010 RMK AO2 PK
WND 28031/2130 SLP101 T02501067





000
SAUS45 KABQ 282155 COR
MTRCQC
METAR KCQC 282153Z AUTO 27022G26KT 10SM CLR 25/M07 A3010 RMK AO2 PK
WND 28031/2130 SLP101 T02501067





000
SAUS45 KABQ 282154
MTRTCS
METAR KTCS 282153Z AUTO 10SM CLR 31/M07 A2996 RMK AO2 SLP058
T03061072 TSNO





000
SAUS45 KABQ 282154
MTRCQC
METAR KCQC 282153Z AUTO 27022G26KT 10SM CLR 25/M07 A3010 RMK AO2 PK
WND 28031/2130 SLP101 T02501067





000
SAUS45 KABQ 282154
MTRCQC
METAR KCQC 282153Z AUTO 27022G26KT 10SM CLR 25/M07 A3010 RMK AO2 PK
WND 28031/2130 SLP101 T02501067





000
SAUS45 KABQ 282153
MTRABQ
METAR KABQ 282152Z 18011KT 10SM FEW120 28/M04 A3001 RMK AO2 SLP090
T02781039





000
SAUS45 KABQ 282153
MTRABQ
METAR KABQ 282152Z 18011KT 10SM FEW120 28/M04 A3001 RMK AO2 SLP090
T02781039





000
SAUS45 KABQ 282054
MTRCQC
METAR KCQC 282053Z AUTO 28018G30KT 10SM CLR 24/M07 A3012 RMK AO2 PK
WND 25030/2045 SLP111 T02441067 58018





000
SAUS45 KABQ 282054
MTRTCS
METAR KTCS 282053Z AUTO 19014G19KT 10SM CLR 32/M06 A2999 RMK AO2
SLP066 T03171061 58026 TSNO





000
SAUS45 KABQ 282052
MTRABQ
METAR KABQ 282052Z 15005KT 10SM FEW120 27/M04 A3005 RMK AO2 SLP103
T02671039 58023





000
SAUS45 KABQ 282002 COR
MTRCQC
METAR KCQC 281953Z AUTO 27019G24KT 10SM CLR 24/M06 A3015 RMK AO2 PK
WND 32027/1931 SLP118 T02441061





000
SAUS45 KABQ 282002 COR
MTRCQC
METAR KCQC 281953Z AUTO 27019G24KT 10SM CLR 24/M06 A3015 RMK AO2 PK
WND 32027/1931 SLP118 T02441061





000
SAUS45 KABQ 282001 COR
MTRCQC
METAR KCQC 281953Z AUTO 27019G24KT 10SM CLR 24/M06 A3015 RMK AO2 PK
WND 32027/1931 SLP118 T02441061





000
SAUS45 KABQ 281959 COR
MTRCQC
METAR KCQC 281953Z AUTO 27019G24KT 10SM CLR 24/M06 A3015 RMK AO2 PK
WND 32027/1931 SLP118 T02441061





000
SAUS45 KABQ 281958 COR
MTRCQC
METAR KCQC 281953Z AUTO 27019G24KT 10SM CLR 24/M06 A3015 RMK AO2 PK
WND 32027/1931 SLP118 T02441061





000
SAUS45 KABQ 281956 COR
MTRCQC
METAR KCQC 281953Z AUTO 27019G24KT 10SM CLR 24/M06 A3015 RMK AO2 PK
WND 32027/1931 SLP118 T02441061





000
SAUS45 KABQ 281955 COR
MTRCQC
METAR KCQC 281953Z AUTO 27019G24KT 10SM CLR 24/M06 A3015 RMK AO2 PK
WND 32027/1931 SLP118 T02441061





000
SAUS45 KABQ 281955
MTRCQC
METAR KCQC 281953Z AUTO 27019G24KT 10SM CLR 24/M06 A3015 RMK AO2 PK
WND 32027/1931 SLP118 T02441061





000
SAUS45 KABQ 281955 COR
MTRCQC
METAR KCQC 281953Z AUTO 27019G24KT 10SM CLR 24/M06 A3015 RMK AO2 PK
WND 32027/1931 SLP118 T02441061





000
SAUS45 KABQ 281955
MTRCQC
METAR KCQC 281953Z AUTO 27019G24KT 10SM CLR 24/M06 A3015 RMK AO2 PK
WND 32027/1931 SLP118 T02441061





000
SAUS45 KABQ 281954
MTRTCS
METAR KTCS 281953Z AUTO 06012G17KT 10SM CLR 31/M06 A3002 RMK AO2
SLP081 T03061061 TSNO





000
SAUS45 KABQ 281952
MTRABQ
METAR KABQ 281952Z 26008KT 10SM FEW120 27/M03 A3008 RMK AO2 SLP114
T02671028





000
SAUS45 KABQ 281854
MTRTCS
METAR KTCS 281853Z AUTO VRB03KT 10SM CLR 28/M06 A3005 RMK AO2 SLP092
T02831061 TSNO





000
SAUS45 KABQ 281854
MTRCQC
METAR KCQC 281853Z AUTO 30013G21KT 10SM FEW100 22/M03 A3017 RMK AO2
SLP132 T02221033





000
SAUS45 KABQ 281854
MTRCQC
METAR KCQC 281853Z AUTO 30013G21KT 10SM FEW100 22/M03 A3017 RMK AO2
SLP132 T02221033





000
SAUS45 KABQ 281852
MTRABQ
METAR KABQ 281852Z 08004KT 10SM FEW120 26/M04 A3010 RMK AO2 SLP117
T02561039





000
SAUS45 KABQ 281852
MTRABQ
METAR KABQ 281852Z 08004KT 10SM FEW120 26/M04 A3010 RMK AO2 SLP117
T02561039





000
SAUS45 KABQ 281754
MTRCQC
METAR KCQC 281753Z AUTO 27014G20KT 10SM CLR 23/M05 A3019 RMK AO2
SLP127 T02281050 10228 20100 50000





000
SAUS45 KABQ 281754
MTRTCS
METAR KTCS 281753Z AUTO 09006KT 10SM CLR 28/M05 A3008 RMK AO2 SLP103
T02831050 10283 20156 58006 TSNO





000
SAUS45 KABQ 281753
MTRABQ
METAR KABQ 281752Z 00000KT 10SM FEW110 FEW250 24/M02 A3013 RMK AO2
SLP129 T02391017 10244 20122 58004





000
SAUS45 KABQ 281753
MTRABQ
METAR KABQ 281752Z 00000KT 10SM FEW110 FEW250 24/M02 A3013 RMK AO2
SLP129 T02391017 10244 20122 58004





000
SAUS45 KABQ 281658 COR
MTRCQC
METAR KCQC 281653Z AUTO 32010KT 10SM CLR 22/M04 A3019 RMK AO2 SLP134
T02171044





000
SAUS45 KABQ 281658 COR
MTRCQC
METAR KCQC 281653Z AUTO 32010KT 10SM CLR 22/M04 A3019 RMK AO2 SLP134
T02171044





000
SAUS45 KABQ 281656 COR
MTRCQC
METAR KCQC 281653Z AUTO 32010KT 10SM CLR 22/M04 A3019 RMK AO2 SLP134
T02171044





000
SAUS45 KABQ 281655 COR
MTRCQC
METAR KCQC 281653Z AUTO 32010KT 10SM CLR 22/M04 A3019 RMK AO2 SLP134
T02171044





000
SAUS45 KABQ 281654
MTRTCS
METAR KTCS 281653Z AUTO 08007KT 10SM CLR 27/M04 A3009 RMK AO2 SLP108
T02721039 TSNO





000
SAUS45 KABQ 281654
MTRCQC
METAR KCQC 281653Z AUTO 32010KT 10SM CLR 22/M04 A3019 RMK AO2 SLP134
T02171044





000
SAUS45 KABQ 281653
MTRABQ
METAR KABQ 281652Z 26004KT 10SM FEW100 FEW230 23/M01 A3015 RMK AO2
SLP132 T02281006





000
SAUS45 KABQ 281554
MTRTCS
METAR KTCS 281553Z AUTO VRB03KT 10SM CLR 26/M03 A3009 RMK AO2 SLP107
T02561033 TSNO





000
SAUS45 KABQ 281554
MTRCQC
METAR KCQC 281553Z AUTO 28008KT 10SM CLR 21/M02 A3019 RMK AO2 SLP131
T02061017





000
SAUS45 KABQ 281553
MTRABQ
METAR KABQ 281552Z 21003KT 10SM FEW200 21/01 A3015 RMK AO2 SLP132
T02060006





000
SAUS45 KABQ 281553
MTRABQ
METAR KABQ 281552Z 21003KT 10SM FEW200 21/01 A3015 RMK AO2 SLP132
T02060006





000
SAUS45 KABQ 281454
MTRTCS
METAR KTCS 281453Z AUTO 34006KT 10SM CLR 24/M05 A3010 RMK AO2 SLP106
T02391050 51010 TSNO





000
SAUS45 KABQ 281454
MTRCQC
METAR KCQC 281453Z AUTO 29010KT 10SM CLR 19/M02 A3019 RMK AO2 SLP132
T01891022 51005





000
SAUS45 KABQ 281452
MTRABQ
METAR KABQ 281452Z 00000KT 10SM FEW220 18/02 A3015 RMK AO2 SLP136
T01830022 51009





000
SAUS45 KABQ 281452
MTRABQ
METAR KABQ 281452Z 00000KT 10SM FEW220 18/02 A3015 RMK AO2 SLP136
T01830022 51009





000
SAUS45 KABQ 281354
MTRCQC
METAR KCQC 281353Z AUTO 28008KT 10SM CLR 17/M03 A3019 RMK AO2 SLP134
T01721033





000
SAUS45 KABQ 281354
MTRTCS
METAR KTCS 281353Z AUTO 32008KT 10SM CLR 22/M05 A3009 RMK AO2 SLP101
T02171050 TSNO





000
SAUS45 KABQ 281352
MTRABQ
METAR KABQ 281352Z 00000KT 10SM FEW220 FEW300 16/02 A3014 RMK AO2
SLP136 T01610022





000
SAUS45 KABQ 281254
MTRCQC
METAR KCQC 281253Z AUTO 26008KT 10SM CLR 12/M02 A3018 RMK AO2 SLP135
T01171022





000
SAUS45 KABQ 281254
MTRTCS
METAR KTCS 281253Z AUTO 31007KT 10SM CLR 17/M07 A3008 RMK AO2 SLP104
T01721067 TSNO





000
SAUS45 KABQ 281253
MTRABQ
METAR KABQ 281252Z 08003KT 10SM FEW220 FEW300 14/03 A3013 RMK AO2
SLP136 T01390028





000
SAUS45 KABQ 281253
MTRABQ
METAR KABQ 281252Z 08003KT 10SM FEW220 FEW300 14/03 A3013 RMK AO2
SLP136 T01390028





000
SAUS45 KABQ 281154
MTRTCS
METAR KTCS 281153Z AUTO 31007KT 10SM CLR 16/M08 A3007 RMK AO2 SLP100
T01561083 10194 20139 51011 TSNO





000
SAUS45 KABQ 281154
MTRCQC
METAR KCQC 281153Z AUTO 24010KT 10SM CLR 10/M04 A3017 RMK AO2 SLP136
T01001039 10144 20083 53007





000
SAUS45 KABQ 281153
MTRABQ
METAR KABQ 281152Z 24004KT 10SM SCT220 13/01 A3011 RMK AO2 SLP129
T01330011 10183 20122 52010





000
SAUS45 KABQ 281153
MTRABQ
METAR KABQ 281152Z 24004KT 10SM SCT220 13/01 A3011 RMK AO2 SLP129
T01330011 10183 20122 52010





000
SAUS45 KABQ 281055
MTRCQC
METAR KCQC 281053Z AUTO 25007KT 10SM CLR 09/M04 A3016 RMK AO2 SLP128
T00941039





000
SAUS45 KABQ 281055
MTRCQC
METAR KCQC 281053Z AUTO 25007KT 10SM CLR 09/M04 A3016 RMK AO2 SLP128
T00941039





000
SAUS45 KABQ 281054
MTRTCS
METAR KTCS 281053Z AUTO 34003KT 10SM CLR 16/M09 A3006 RMK AO2 SLP097
T01611094 TSNO





000
SAUS45 KABQ 281054
MTRTCS
METAR KTCS 281053Z AUTO 34003KT 10SM CLR 16/M09 A3006 RMK AO2 SLP097
T01611094 TSNO





000
SAUS45 KABQ 281053
MTRABQ
METAR KABQ 281052Z 12005KT 10SM SCT240 12/01 A3010 RMK AO2 SLP128
T01220011





000
SAUS45 KABQ 281053
MTRABQ
METAR KABQ 281052Z 12005KT 10SM SCT240 12/01 A3010 RMK AO2 SLP128
T01220011





000
SAUS45 KABQ 280954
MTRTCS
METAR KTCS 280953Z AUTO 28008KT 10SM CLR 18/M09 A3004 RMK AO2 SLP089
T01781094 TSNO





000
SAUS45 KABQ 280954
MTRCQC
METAR KCQC 280953Z AUTO 18007KT 10SM CLR 11/M03 A3014 RMK AO2 SLP117
T01061028





000
SAUS45 KABQ 280952
MTRABQ
METAR KABQ 280952Z 13005KT 10SM SCT240 13/01 A3009 RMK AO2 SLP119
T01280011





000
SAUS45 KABQ 280854
MTRTCS
METAR KTCS 280853Z AUTO 27007KT 10SM CLR 18/M09 A3003 RMK AO2 SLP081
T01831094 58002 TSNO





000
SAUS45 KABQ 280854
MTRCQC
METAR KCQC 280853Z AUTO 17006KT 10SM CLR 10/M03 A3014 RMK AO2 SLP122
T01001033 56008





000
SAUS45 KABQ 280852
MTRABQ
METAR KABQ 280852Z 00000KT 10SM BKN240 14/M01 A3008 RMK AO2 SLP114
T01441006 51006





000
SAUS45 KABQ 280755
MTRCQC
METAR KCQC 280753Z AUTO 18008KT 10SM CLR 11/M02 A3015 RMK AO2 SLP124
T01111022





000
SAUS45 KABQ 280755
MTRTCS
METAR KTCS 280753Z AUTO 26007KT 10SM CLR 17/M09 A3003 RMK AO2 SLP087
T01721094 TSNO





000
SAUS45 KABQ 280752
MTRABQ
METAR KABQ 280752Z 10007KT 10SM FEW150 SCT230 14/01 A3007 RMK AO2
SLP114 T01390006





000
SAUS45 KABQ 280752
MTRABQ
METAR KABQ 280752Z 10007KT 10SM FEW150 SCT230 14/01 A3007 RMK AO2
SLP114 T01390006





000
SAUS45 KABQ 280655
MTRCQC
METAR KCQC 280653Z AUTO 19009KT 10SM CLR 11/M02 A3016 RMK AO2 SLP131
T01061017 402390100





000
SAUS45 KABQ 280654
MTRTCS
METAR KTCS 280653Z AUTO 29003KT 10SM CLR 19/M10 A3004 RMK AO2 SLP089
T01891100 403110117 TSNO





000
SAUS45 KABQ 280653
MTRABQ
METAR KABQ 280652Z 16004KT 10SM FEW150 SCT230 17/M02 A3007 RMK AO2
SLP110 T01721022 402610139





000
SAUS45 KABQ 280653
MTRABQ
METAR KABQ 280652Z 16004KT 10SM FEW150 SCT230 17/M02 A3007 RMK AO2
SLP110 T01721022 402610139





000
SAUS45 KABQ 280554
MTRCQC
METAR KCQC 280553Z AUTO 15005KT 10SM CLR 14/M04 A3018 RMK AO2 SLP125
T01441039 10211 20128 51004





000
SAUS45 KABQ 280554
MTRTCS
METAR KTCS 280553Z AUTO 23004KT 10SM CLR 18/M10 A3003 RMK AO2 SLP092
T01781100 10306 20172 51011 TSNO





000
SAUS45 KABQ 280554
MTRTCS
METAR KTCS 280553Z AUTO 23004KT 10SM CLR 18/M10 A3003 RMK AO2 SLP092
T01781100 10306 20172 51011 TSNO





000
SAUS45 KABQ 280554
MTRCQC
METAR KCQC 280553Z AUTO 15005KT 10SM CLR 14/M04 A3018 RMK AO2 SLP125
T01441039 10211 20128 51004





000
SAUS45 KABQ 280553
MTRABQ
METAR KABQ 280552Z 14008KT 10SM FEW180 SCT250 18/M01 A3006 RMK AO2
SLP104 T01831006 10256 20172 53002





000
SAUS45 KABQ 280455
MTRCQC
METAR KCQC 280453Z AUTO 17006KT 10SM CLR 13/M03 A3018 RMK AO2 SLP132
T01331033





000
SAUS45 KABQ 280455
MTRTCS
METAR KTCS 280453Z AUTO 30006KT 10SM CLR 19/M11 A3003 RMK AO2 SLP091
T01891106 TSNO





000
SAUS45 KABQ 280453
MTRABQ
METAR KABQ 280452Z 09009KT 10SM FEW180 BKN250 20/00 A3005 RMK AO2
SLP103 T02000000





000
SAUS45 KABQ 280354
MTRTCS
METAR KTCS 280353Z AUTO 23005KT 10SM CLR 22/M11 A3001 RMK AO2 SLP082
T02221111 TSNO





000
SAUS45 KABQ 280354
MTRCQC
METAR KCQC 280353Z AUTO 20009KT 10SM CLR 14/M03 A3017 RMK AO2 SLP129
T01441033





000
SAUS45 KABQ 280352
MTRABQ
METAR KABQ 280352Z 03007KT 10SM FEW120 BKN210 22/01 A3005 RMK AO2
SLP101 T02220006





000
SAUS45 KABQ 280254
MTRTCS
METAR KTCS 280253Z AUTO 19005KT 10SM CLR 24/M09 A3000 RMK AO2 SLP075
T02441089 53005 TSNO





000
SAUS45 KABQ 280254
MTRCQC
METAR KCQC 280253Z AUTO 21007KT 10SM CLR 16/M03 A3016 RMK AO2 SLP127
T01611033 55000





000
SAUS45 KABQ 280252
MTRABQ
METAR KABQ 280252Z 03010KT 10SM FEW120 BKN210 23/00 A3005 RMK AO2
SLP105 T02280000 53001





000
SAUS45 KABQ 280252
MTRABQ
METAR KABQ 280252Z 03010KT 10SM FEW120 BKN210 23/00 A3005 RMK AO2
SLP105 T02280000 53001





000
SAUS45 KABQ 280154
MTRTCS
METAR KTCS 280153Z AUTO 18008KT 10SM CLR 28/M11 A2999 RMK AO2 SLP072
T02781106 TSNO





000
SAUS45 KABQ 280154
MTRCQC
METAR KCQC 280153Z AUTO 21007KT 10SM CLR 17/M02 A3016 RMK AO2 SLP129
T01671017





000
SAUS45 KABQ 280153
MTRABQ
METAR KABQ 280152Z 00000KT 10SM FEW120 SCT170 BKN210 24/01 A3005 RMK
AO2 SLP104 VIRGA W T02440006





000
SAUS45 KABQ 280055
MTRCQC
METAR KCQC 280053Z AUTO 22012KT 10SM CLR 20/M05 A3015 RMK AO2 SLP122
T02001050





000
SAUS45 KABQ 280054
MTRTCS
METAR KTCS 280053Z AUTO 18013KT 10SM CLR 29/M11 A2998 RMK AO2 SLP076
T02891106 TSNO





000
SAUS45 KABQ 280053
MTRABQ
METAR KABQ 280052Z 13003KT 10SM FEW120 SCT170 BKN210 24/01 A3004 RMK
AO2 SLP102 VIRGA SW-NW T02440006





000
SAUS45 KABQ 280053
MTRABQ
METAR KABQ 280052Z 13003KT 10SM FEW120 SCT170 BKN210 24/01 A3004 RMK
AO2 SLP102 VIRGA SW-NW T02440006





000
SAUS45 KABQ 272354
MTRTCS
METAR KTCS 272353Z AUTO 18015G22KT 140V220 10SM CLR 30/M08 A2998 RMK
AO2 SLP077 T03001083 10311 20261 57019 TSNO





000
SAUS45 KABQ 272354
MTRCQC
METAR KCQC 272353Z AUTO 22016KT 10SM CLR 21/M06 A3016 RMK AO2 SLP127
T02111061 10239 20206 56012





000
SAUS45 KABQ 272354
MTRTCS
METAR KTCS 272353Z AUTO 18015G22KT 140V220 10SM CLR 30/M08 A2998 RMK
AO2 SLP077 T03001083 10311 20261 57019 TSNO





000
SAUS45 KABQ 272354
MTRCQC
METAR KCQC 272353Z AUTO 22016KT 10SM CLR 21/M06 A3016 RMK AO2 SLP127
T02111061 10239 20206 56012





000
SAUS45 KABQ 272352
MTRABQ
METAR KABQ 272352Z 15006KT 10SM FEW120 BKN200 25/M02 A3005 RMK AO2
SLP104 VIRGA W T02501017 10261 20222 56018





000
SAUS45 KABQ 272255
MTRTCS
METAR KTCS 272253Z AUTO 22008G21KT 10SM CLR 30/M08 A3000 RMK AO2 PK
WND 18026/2242 WSHFT 2205 SLP082 T03001078 TSNO





000
SAUS45 KABQ 272254
MTRCQC
METAR KCQC 272253Z AUTO 22020G23KT 10SM CLR 23/M06 A3017 RMK AO2 PK
WND 24027/2204 SLP125 T02281056





000
SAUS45 KABQ 272253
MTRABQ
METAR KABQ 272252Z 20004KT 10SM FEW120 OVC200 25/M01 A3007 RMK AO2
SLP109 VIRGA SW-NW T02501011





000
SAUS45 KABQ 272253
MTRABQ
METAR KABQ 272252Z 20004KT 10SM FEW120 OVC200 25/M01 A3007 RMK AO2
SLP109 VIRGA SW-NW T02501011





000
SAUS45 KABQ 272226
MTRTCS
SPECI KTCS 272225Z AUTO 16015KT 10SM CLR 30/M07 A3001 RMK AO2 WSHFT
2205 T03001067 TSNO





000
SAUS45 KABQ 272201 COR
MTRCQC
METAR KCQC 272153Z AUTO 23019G25KT 10SM FEW095 24/M06 A3018 RMK AO2
PK WND 22028/2137 SLP132 T02391056





000
SAUS45 KABQ 272159 COR
MTRCQC
METAR KCQC 272153Z AUTO 23019G25KT 10SM FEW095 24/M06 A3018 RMK AO2
PK WND 22028/2137 SLP132 T02391056





000
SAUS45 KABQ 272158 COR
MTRCQC
METAR KCQC 272153Z AUTO 23019G25KT 10SM FEW095 24/M06 A3018 RMK AO2
PK WND 22028/2137 SLP132 T02391056





000
SAUS45 KABQ 272156 COR
MTRCQC
METAR KCQC 272153Z AUTO 23019G25KT 10SM FEW095 24/M06 A3018 RMK AO2
PK WND 22028/2137 SLP132 T02391056





000
SAUS45 KABQ 272155 COR
MTRCQC
METAR KCQC 272153Z AUTO 23019G25KT 10SM FEW095 24/M06 A3018 RMK AO2
PK WND 22028/2137 SLP132 T02391056





000
SAUS45 KABQ 272154
MTRCQC
METAR KCQC 272153Z AUTO 23019G25KT 10SM FEW095 24/M06 A3018 RMK AO2
PK WND 22028/2137 SLP132 T02391056





000
SAUS45 KABQ 272154
MTRTCS
METAR KTCS 272153Z AUTO 16014G25KT 10SM CLR 30/M07 A3002 RMK AO2 PK
WND 18026/2142 SLP086 T03001072 TSNO





000
SAUS45 KABQ 272153
MTRABQ
METAR KABQ 272152Z 19011KT 10SM FEW110 OVC200 26/M03 A3009 RMK AO2
SLP116 T02561028





000
SAUS45 KABQ 272054
MTRTCS
METAR KTCS 272053Z AUTO 20014G24KT 10SM CLR 30/M06 A3004 RMK AO2 PK
WND 15031/2011 SLP091 T03001061 58019 TSNO





000
SAUS45 KABQ 272054
MTRCQC
METAR KCQC 272053Z AUTO 23016KT 10SM FEW090 23/M01 A3020 RMK AO2 PK
WND 21027/1957 SLP139 T02331011 58009





000
SAUS45 KABQ 272053
MTRABQ
METAR KABQ 272052Z 25009KT 10SM FEW110 OVC200 25/M01 A3011 RMK AO2
SLP122 T02501011 58015





000
SAUS45 KABQ 271958 COR
MTRCQC
METAR KCQC 271953Z AUTO 21010G26KT 10SM CLR 22/M03 A3022 RMK AO2 PK
WND 22026/1947 SLP144 T02221033





000
SAUS45 KABQ 271958 COR
MTRCQC
METAR KCQC 271953Z AUTO 21010G26KT 10SM CLR 22/M03 A3022 RMK AO2 PK
WND 22026/1947 SLP144 T02221033





000
SAUS45 KABQ 271956 COR
MTRCQC
METAR KCQC 271953Z AUTO 21010G26KT 10SM CLR 22/M03 A3022 RMK AO2 PK
WND 22026/1947 SLP144 T02221033





000
SAUS45 KABQ 271955 COR
MTRCQC
METAR KCQC 271953Z AUTO 21010G26KT 10SM CLR 22/M03 A3022 RMK AO2 PK
WND 22026/1947 SLP144 T02221033





000
SAUS45 KABQ 271955
MTRCQC
METAR KCQC 271953Z AUTO 21010G26KT 10SM CLR 22/M03 A3022 RMK AO2 PK
WND 22026/1947 SLP144 T02221033





000
SAUS45 KABQ 271955
MTRTCS
METAR KTCS 271953Z AUTO 18014G22KT 10SM CLR 29/M07 A3007 RMK AO2
SLP100 T02891067 TSNO





000
SAUS45 KABQ 271952
MTRABQ
METAR KABQ 271952Z 20009G14KT 10SM FEW100 BKN220 25/01 A3013 RMK AO2
SLP130 T02500006





000
SAUS45 KABQ 271854
MTRCQC
METAR KCQC 271853Z AUTO 21013KT 10SM CLR 21/M02 A3023 RMK AO2 SLP152
T02111022





000
SAUS45 KABQ 271854
MTRTCS
METAR KTCS 271853Z AUTO 14011G18KT 10SM CLR 28/M04 A3009 RMK AO2
SLP110 T02781039 TSNO





000
SAUS45 KABQ 271852
MTRABQ
METAR KABQ 271852Z VRB04KT 10SM FEW090 BKN200 23/04 A3015 RMK AO2
SLP136 T02330039





000
SAUS45 KABQ 271852
MTRABQ
METAR KABQ 271852Z VRB04KT 10SM FEW090 BKN200 23/04 A3015 RMK AO2
SLP136 T02330039





000
SAUS45 KABQ 271755
MTRTCS
METAR KTCS 271753Z AUTO VRB06KT 10SM CLR 26/M02 A3011 RMK AO2 SLP114
T02611022 10261 20117 58006 TSNO





000
SAUS45 KABQ 271755
MTRTCS
METAR KTCS 271753Z AUTO VRB06KT 10SM CLR 26/M02 A3011 RMK AO2 SLP114
T02611022 10261 20117 58006 TSNO





000
SAUS45 KABQ 271754
MTRCQC
METAR KCQC 271753Z AUTO 19009G16KT 10SM CLR 22/02 A3024 RMK AO2
SLP154 T02170017 10217 20111 58002





000
SAUS45 KABQ 271754
MTRCQC
METAR KCQC 271753Z AUTO 19009G16KT 10SM CLR 22/02 A3024 RMK AO2
SLP154 T02170017 10217 20111 58002





000
SAUS45 KABQ 271752
MTRABQ
METAR KABQ 271752Z 19008KT 170V230 10SM FEW080 BKN190 BKN230 23/06
A3016 RMK AO2 SLP142 T02330061 10233 20139 58005





000
SAUS45 KABQ 271655
MTRTCS
METAR KTCS 271653Z AUTO 10006KT 10SM CLR 26/01 A3012 RMK AO2 SLP117
T02560006 TSNO





000
SAUS45 KABQ 271654
MTRCQC
METAR KCQC 271653Z AUTO VRB04KT 10SM CLR 19/01 A3024 RMK AO2 SLP156
T01940011





000
SAUS45 KABQ 271653
MTRABQ
METAR KABQ 271652Z 22004KT 10SM FEW080 BKN230 21/04 A3017 RMK AO2
SLP148 T02110044





000
SAUS45 KABQ 271558 COR
MTRCQC
METAR KCQC 271553Z AUTO 16008KT 10SM CLR 18/03 A3025 RMK AO2 SLP162
T01830028





000
SAUS45 KABQ 271556 COR
MTRCQC
METAR KCQC 271553Z AUTO 16008KT 10SM CLR 18/03 A3025 RMK AO2 SLP162
T01830028





000
SAUS45 KABQ 271556 COR
MTRCQC
METAR KCQC 271553Z AUTO 16008KT 10SM CLR 18/03 A3025 RMK AO2 SLP162
T01830028





000
SAUS45 KABQ 271555 COR
MTRCQC
METAR KCQC 271553Z AUTO 16008KT 10SM CLR 18/03 A3025 RMK AO2 SLP162
T01830028





000
SAUS45 KABQ 271554
MTRCQC
METAR KCQC 271553Z AUTO 16008KT 10SM CLR 18/03 A3025 RMK AO2 SLP162
T01830028





000
SAUS45 KABQ 271554
MTRTCS
METAR KTCS 271553Z AUTO VRB04KT 10SM CLR 23/02 A3013 RMK AO2 SLP121
T02330017 TSNO





000
SAUS45 KABQ 271553
MTRABQ
METAR KABQ 271552Z 18004KT 10SM FEW070 FEW200 BKN270 19/06 A3018 RMK
AO2 SLP156 T01940061





000
SAUS45 KABQ 271455
MTRCQC
METAR KCQC 271453Z AUTO 15009KT 10SM CLR 17/03 A3024 RMK AO2 SLP162
T01720033 53010





000
SAUS45 KABQ 271455
MTRTCS
METAR KTCS 271453Z AUTO 05005KT 10SM CLR 22/00 A3013 RMK AO2 SLP121
T02170000 51010 TSNO





000
SAUS45 KABQ 271452
MTRABQ
METAR KABQ 271452Z 00000KT 10SM SCT200 SCT270 17/07 A3018 RMK AO2
SLP155 T01720072 53011





000
SAUS45 KABQ 271354
MTRTCS
METAR KTCS 271353Z AUTO 01005KT 10SM CLR 19/M02 A3012 RMK AO2 SLP120
T01891017 TSNO





000
SAUS45 KABQ 271354
MTRTCS
METAR KTCS 271353Z AUTO 01005KT 10SM CLR 19/M02 A3012 RMK AO2 SLP120
T01891017 TSNO





000
SAUS45 KABQ 271354
MTRCQC
METAR KCQC 271353Z AUTO 13005KT 10SM CLR 15/04 A3023 RMK AO2 SLP156
T01500044





000
SAUS45 KABQ 271354
MTRCQC
METAR KCQC 271353Z AUTO 13005KT 10SM CLR 15/04 A3023 RMK AO2 SLP156
T01500044





000
SAUS45 KABQ 271352
MTRABQ
METAR KABQ 271352Z 35006KT 10SM BKN200 15/07 A3017 RMK AO2 SLP151
T01500067





000
SAUS45 KABQ 271254
MTRCQC
METAR KCQC 271253Z AUTO 11003KT 10SM CLR 14/02 A3022 RMK AO2 SLP148
T01440017





000
SAUS45 KABQ 271254
MTRTCS
METAR KTCS 271253Z AUTO 33006KT 10SM CLR 14/M03 A3011 RMK AO2 SLP123
T01391033 TSNO





000
SAUS45 KABQ 271254
MTRCQC
METAR KCQC 271253Z AUTO 11003KT 10SM CLR 14/02 A3022 RMK AO2 SLP148
T01440017





000
SAUS45 KABQ 271254
MTRTCS
METAR KTCS 271253Z AUTO 33006KT 10SM CLR 14/M03 A3011 RMK AO2 SLP123
T01391033 TSNO





000
SAUS45 KABQ 271252
MTRABQ
METAR KABQ 271252Z 01008KT 10SM FEW120 BKN230 14/07 A3015 RMK AO2
SLP142 T01440067





000
SAUS45 KABQ 271252
MTRABQ
METAR KABQ 271252Z 01008KT 10SM FEW120 BKN230 14/07 A3015 RMK AO2
SLP142 T01440067





000
SAUS45 KABQ 271154
MTRCQC
METAR KCQC 271153Z AUTO 00000KT 10SM CLR 12/02 A3021 RMK AO2 SLP147
T01220022 10133 20100 53006





000
SAUS45 KABQ 271154
MTRTCS
METAR KTCS 271153Z AUTO 28006KT 10SM CLR 12/M03 A3010 RMK AO2 SLP121
T01221033 10206 20122 53011 TSNO





000
SAUS45 KABQ 271153
MTRABQ
METAR KABQ 271152Z 33005KT 10SM FEW120 SCT230 14/07 A3015 RMK AO2
SLP140 T01440072 10194 20144 53009





000
SAUS45 KABQ 271055
MTRCQC
METAR KCQC 271053Z AUTO 04003KT 10SM CLR 12/03 A3020 RMK AO2 SLP143
T01220028





000
SAUS45 KABQ 271055
MTRCQC
METAR KCQC 271053Z AUTO 04003KT 10SM CLR 12/03 A3020 RMK AO2 SLP143
T01220028





000
SAUS45 KABQ 271054
MTRTCS
METAR KTCS 271053Z AUTO 27004KT 10SM CLR 13/M04 A3008 RMK AO2 SLP113
T01331039 TSNO





000
SAUS45 KABQ 271054
MTRTCS
METAR KTCS 271053Z AUTO 27004KT 10SM CLR 13/M04 A3008 RMK AO2 SLP113
T01331039 TSNO





000
SAUS45 KABQ 271053
MTRABQ
METAR KABQ 271052Z 02004KT 10SM SCT120 15/08 A3013 RMK AO2 SLP134
T01500078





000
SAUS45 KABQ 270955
MTRTCS
METAR KTCS 270953Z AUTO 25004KT 10SM CLR 16/M04 A3007 RMK AO2 SLP107
T01561044 TSNO





000
SAUS45 KABQ 270954
MTRCQC
METAR KCQC 270953Z AUTO 07004KT 10SM SCT100 11/04 A3019 RMK AO2
SLP143 T01060039





000
SAUS45 KABQ 270953
MTRABQ
METAR KABQ 270952Z 03007KT 10SM FEW120 16/07 A3012 RMK AO2 SLP131
T01560072





000
SAUS45 KABQ 270953
MTRABQ
METAR KABQ 270952Z 03007KT 10SM FEW120 16/07 A3012 RMK AO2 SLP131
T01560072





000
SAUS45 KABQ 270854
MTRCQC
METAR KCQC 270853Z AUTO 34007KT 10SM CLR 11/04 A3019 RMK AO2 SLP140
T01110044 55003





000
SAUS45 KABQ 270854
MTRTCS
METAR KTCS 270853Z AUTO 29004KT 10SM CLR 16/M04 A3006 RMK AO2 SLP102
T01611044 53003 TSNO





000
SAUS45 KABQ 270852
MTRABQ
METAR KABQ 270852Z 33009KT 10SM FEW120 17/06 A3011 RMK AO2 SLP128
T01670061 55000





000
SAUS45 KABQ 270755
MTRCQC
METAR KCQC 270753Z AUTO 33007KT 10SM BKN110 12/04 A3019 RMK AO2
SLP138 T01220044





000
SAUS45 KABQ 270755
MTRTCS
METAR KTCS 270753Z AUTO 31008KT 10SM CLR 17/M04 A3005 RMK AO2 SLP100
T01721044 TSNO





000
SAUS45 KABQ 270752
MTRABQ
METAR KABQ 270752Z 10007KT 10SM SCT100 BKN140 17/07 A3010 RMK AO2
SLP123 T01720067





000
SAUS45 KABQ 270655
MTRCQC
METAR KCQC 270653Z AUTO 31008KT 10SM FEW090 BKN110 12/06 A3020 RMK
AO2 SLP144 T01220056 402170056





000
SAUS45 KABQ 270654
MTRTCS
METAR KTCS 270653Z AUTO 32008KT 10SM CLR 18/M04 A3005 RMK AO2 SLP101
T01781044 402890117 TSNO





000
SAUS45 KABQ 270652
MTRABQ
METAR KABQ 270652Z 33005KT 10SM BKN100 BKN140 19/06 A3012 RMK AO2
SLP129 T01890056 402440083





000
SAUS45 KABQ 270603 COR
MTRCQC
METAR KCQC 270553Z AUTO 24005KT 10SM FEW095 OVC110 11/06 A3020 RMK
AO2 RAE03B40E42 SLP149 P0000 60000 T01110056 10206 20111 50010





000
SAUS45 KABQ 270603 COR
MTRCQC
METAR KCQC 270553Z AUTO 24005KT 10SM FEW095 OVC110 11/06 A3020 RMK
AO2 RAE03B40E42 SLP149 P0000 60000 T01110056 10206 20111 50010





000
SAUS45 KABQ 270602 COR
MTRCQC
METAR KCQC 270553Z AUTO 24005KT 10SM FEW095 OVC110 11/06 A3020 RMK
AO2 RAE03B40E42 SLP149 P0000 60000 T01110056 10206 20111 50010





000
SAUS45 KABQ 270602 COR
MTRCQC
METAR KCQC 270553Z AUTO 24005KT 10SM FEW095 OVC110 11/06 A3020 RMK
AO2 RAE03B40E42 SLP149 P0000 60000 T01110056 10206 20111 50010





000
SAUS45 KABQ 270601 COR
MTRCQC
METAR KCQC 270553Z AUTO 24005KT 10SM FEW095 OVC110 11/06 A3020 RMK
AO2 RAE03B40E42 SLP149 P0000 60000 T01110056 10206 20111 50010





000
SAUS45 KABQ 270601 COR
MTRCQC
METAR KCQC 270553Z AUTO 24005KT 10SM FEW095 OVC110 11/06 A3020 RMK
AO2 RAE03B40E42 SLP149 P0000 60000 T01110056 10206 20111 50010





000
SAUS45 KABQ 270559 COR
MTRCQC
METAR KCQC 270553Z AUTO 24005KT 10SM FEW095 OVC110 11/06 A3020 RMK
AO2 RAE03B40E42 SLP149 P0000 60000 T01110056 10206 20111 50010





000
SAUS45 KABQ 270559 COR
MTRCQC
METAR KCQC 270553Z AUTO 24005KT 10SM FEW095 OVC110 11/06 A3020 RMK
AO2 RAE03B40E42 SLP149 P0000 60000 T01110056 10206 20111 50010





000
SAUS45 KABQ 270558 COR
MTRCQC
METAR KCQC 270553Z AUTO 24005KT 10SM FEW095 OVC110 11/06 A3020 RMK
AO2 RAE03B40E42 SLP149 P0000 60000 T01110056 10206 20111 50010





000
SAUS45 KABQ 270556 COR
MTRCQC
METAR KCQC 270553Z AUTO 24005KT 10SM FEW095 OVC110 11/06 A3020 RMK
AO2 RAE03B40E42 SLP149 P0000 60000 T01110056 10206 20111 50010





000
SAUS45 KABQ 270556 COR
MTRCQC
METAR KCQC 270553Z AUTO 24005KT 10SM FEW095 OVC110 11/06 A3020 RMK
AO2 RAE03B40E42 SLP149 P0000 60000 T01110056 10206 20111 50010





000
SAUS45 KABQ 270555 COR
MTRCQC
METAR KCQC 270553Z AUTO 24005KT 10SM FEW095 OVC110 11/06 A3020 RMK
AO2 RAE03B40E42 SLP149 P0000 60000 T01110056 10206 20111 50010





000
SAUS45 KABQ 270555 COR
MTRCQC
METAR KCQC 270553Z AUTO 24005KT 10SM FEW095 OVC110 11/06 A3020 RMK
AO2 RAE03B40E42 SLP149 P0000 60000 T01110056 10206 20111 50010





000
SAUS45 KABQ 270554
MTRTCS
METAR KTCS 270553Z AUTO 29008KT 10SM CLR 21/M04 A3005 RMK AO2 SLP098
T02061044 10278 20200 51013 TSNO





000
SAUS45 KABQ 270554
MTRCQC
METAR KCQC 270553Z AUTO 24005KT 10SM FEW095 OVC110 11/06 A3020 RMK
AO2 RAE03B40E42 SLP149 P0000 60000 T01110056 10206 20111 50010





000
SAUS45 KABQ 270554
MTRCQC
METAR KCQC 270553Z AUTO 24005KT 10SM FEW095 OVC110 11/06 A3020 RMK
AO2 RAE03B40E42 SLP149 P0000 60000 T01110056 10206 20111 50010





000
SAUS45 KABQ 270554
MTRTCS
METAR KTCS 270553Z AUTO 29008KT 10SM CLR 21/M04 A3005 RMK AO2 SLP098
T02061044 10278 20200 51013 TSNO





000
SAUS45 KABQ 270553
MTRABQ
METAR KABQ 270552Z 11006KT 10SM BKN110 18/07 A3011 RMK AO2 SLP133
T01780072 10244 20172 50008





000
SAUS45 KABQ 270553
MTRABQ
METAR KABQ 270552Z 11006KT 10SM BKN110 18/07 A3011 RMK AO2 SLP133
T01780072 10244 20172 50008





000
SAUS45 KABQ 270458 COR
MTRCQC
METAR KCQC 270453Z AUTO 34008KT 10SM -RA SCT047 BKN075 OVC100 14/04
A3022 RMK AO2 PK WND 25031/0429 RAB25 SLP154 P0000 T01390039





000
SAUS45 KABQ 270458 COR
MTRCQC
METAR KCQC 270453Z AUTO 34008KT 10SM -RA SCT047 BKN075 OVC100 14/04
A3022 RMK AO2 PK WND 25031/0429 RAB25 SLP154 P0000 T01390039





000
SAUS45 KABQ 270456 COR
MTRCQC
METAR KCQC 270453Z AUTO 34008KT 10SM -RA SCT047 BKN075 OVC100 14/04
A3022 RMK AO2 PK WND 25031/0429 RAB25 SLP154 P0000 T01390039





000
SAUS45 KABQ 270455 COR
MTRCQC
METAR KCQC 270453Z AUTO 34008KT 10SM -RA SCT047 BKN075 OVC100 14/04
A3022 RMK AO2 PK WND 25031/0429 RAB25 SLP154 P0000 T01390039





000
SAUS45 KABQ 270455
MTRCQC
METAR KCQC 270453Z AUTO 34008KT 10SM -RA SCT047 BKN075 OVC100 14/04
A3022 RMK AO2 PK WND 25031/0429 RAB25 SLP154 P0000 T01390039





000
SAUS45 KABQ 270455 COR
MTRCQC
METAR KCQC 270453Z AUTO 34008KT 10SM -RA SCT047 BKN075 OVC100 14/04
A3022 RMK AO2 PK WND 25031/0429 RAB25 SLP154 P0000 T01390039





000
SAUS45 KABQ 270455
MTRCQC
METAR KCQC 270453Z AUTO 34008KT 10SM -RA SCT047 BKN075 OVC100 14/04
A3022 RMK AO2 PK WND 25031/0429 RAB25 SLP154 P0000 T01390039





000
SAUS45 KABQ 270454
MTRTCS
METAR KTCS 270453Z AUTO 29006KT 10SM CLR 21/M04 A3005 RMK AO2 SLP100
T02061044 TSNO





000
SAUS45 KABQ 270453
MTRABQ
METAR KABQ 270452Z 13009KT 10SM BKN110 18/06 A3012 RMK AO2 SLP135
T01830056





000
SAUS45 KABQ 270355
MTRTCS
METAR KTCS 270353Z AUTO 25008KT 10SM CLR 23/M04 A3004 RMK AO2 SLP095
T02331044 TSNO





000
SAUS45 KABQ 270354
MTRCQC
METAR KCQC 270353Z AUTO 24009KT 10SM CLR 12/03 A3019 RMK AO2 SLP151
T01220028





000
SAUS45 KABQ 270354
MTRCQC
METAR KCQC 270353Z AUTO 24009KT 10SM CLR 12/03 A3019 RMK AO2 SLP151
T01220028





000
SAUS45 KABQ 270352
MTRABQ
METAR KABQ 270352Z 12010KT 10SM FEW040 SCT100 SCT200 17/07 A3011 RMK
AO2 WSHFT 0255 LTG DSNT E TSE06 SLP136 VIRGA W T01720072





000
SAUS45 KABQ 270310
MTRABQ
SPECI KABQ 270310Z 16012G25KT 10SM FEW040 SCT100 SCT200 19/06 A3009
RMK AO2 WSHFT 0255 TSE06 CB DSNT E SHRA DSNT E T01890061





000
SAUS45 KABQ 270307
MTRABQ
SPECI KABQ 270307Z 16018G25KT 10SM FEW040 SCT100 SCT200 19/06 A3009
RMK AO2 TSE06 CB DSNT E SHRA DSNT E T01890056





000
SAUS45 KABQ 270254
MTRCQC
METAR KCQC 270253Z AUTO 24009KT 10SM CLR 13/02 A3016 RMK AO2 SLP140
T01330022 53008





000
SAUS45 KABQ 270254
MTRTCS
METAR KTCS 270253Z AUTO 22009KT 10SM CLR 25/M05 A3001 RMK AO2 SLP085
T02501050 53006 TSNO





000
SAUS45 KABQ 270252
MTRABQ
METAR KABQ 270252Z 21013G22KT 10SM TS FEW040CB SCT100 SCT200 21/05
A3009 RMK AO2 TSB22 SLP124 TS SE-S MOV NE VCSH SE-SW MTNS OBSC SE
T02060050 53010





000
SAUS45 KABQ 270226
MTRABQ
SPECI KABQ 270224Z COR 00000KT 10SM TS FEW060CB BKN110 BKN200 23/03
A3006 RMK AO2 LTG DSNT SW TSB22 TS SW MOV NE VCSH S-W T02280033





000
SAUS45 KABQ 270226
MTRABQ
SPECI KABQ 270224Z COR 00000KT 10SM TS FEW060CB BKN110 BKN200 23/03
A3006 RMK AO2 LTG DSNT SW TSB22 TS SW MOV NE VCSH S-W T02280033





000
SAUS45 KABQ 270224
MTRABQ
SPECI KABQ 270224Z 00000KT 10SM TS FEW060CB BKN110 BKN200 23/03
A3006 RMK AO2 LTG DSNT SW TSB22 TS SW MOVE NE VCSH S-W T02280033





000
SAUS45 KABQ 270224
MTRABQ
SPECI KABQ 270224Z 00000KT 10SM TS FEW060CB BKN110 BKN200 23/03
A3006 RMK AO2 LTG DSNT SW TSB22 TS SW MOVE NE VCSH S-W T02280033





000
SAUS45 KABQ 270154
MTRCQC
METAR KCQC 270153Z AUTO 25009KT 10SM CLR 17/02 A3015 RMK AO2 SLP136
T01670017





000
SAUS45 KABQ 270154
MTRCQC
METAR KCQC 270153Z AUTO 25009KT 10SM CLR 17/02 A3015 RMK AO2 SLP136
T01670017





000
SAUS45 KABQ 270154
MTRTCS
METAR KTCS 270153Z AUTO 20011KT 10SM CLR 27/M06 A2999 RMK AO2 SLP076
T02671056 TSNO





000
SAUS45 KABQ 270153
MTRABQ
METAR KABQ 270152Z 16004KT 10SM FEW060 FEW130 SCT200 23/03 A3005 RMK
AO2 SLP112 CB DSNT SW SHRA DSNT S-W T02280033





000
SAUS45 KABQ 270058 COR
MTRCQC
METAR KCQC 270053Z AUTO 27014KT 10SM FEW110 19/01 A3014 RMK AO2
SLP135 T01890006





000
SAUS45 KABQ 270056 COR
MTRCQC
METAR KCQC 270053Z AUTO 27014KT 10SM FEW110 19/01 A3014 RMK AO2
SLP135 T01890006





000
SAUS45 KABQ 270056 COR
MTRCQC
METAR KCQC 270053Z AUTO 27014KT 10SM FEW110 19/01 A3014 RMK AO2
SLP135 T01890006





000
SAUS45 KABQ 270055 COR
MTRCQC
METAR KCQC 270053Z AUTO 27014KT 10SM FEW110 19/01 A3014 RMK AO2
SLP135 T01890006





000
SAUS45 KABQ 270055 COR
MTRCQC
METAR KCQC 270053Z AUTO 27014KT 10SM FEW110 19/01 A3014 RMK AO2
SLP135 T01890006





000
SAUS45 KABQ 270054
MTRCQC
METAR KCQC 270053Z AUTO 27014KT 10SM FEW110 19/01 A3014 RMK AO2
SLP135 T01890006





000
SAUS45 KABQ 270054
MTRTCS
METAR KTCS 270053Z AUTO 18015G21KT 10SM CLR 28/M04 A2998 RMK AO2
SLP077 T02781044 TSNO





000
SAUS45 KABQ 270053
MTRABQ
METAR KABQ 270052Z 21005KT 10SM FEW080 SCT130 SCT250 24/03 A3005 RMK
AO2 SLP117 VIRGA W AND NW T02390028





000
SAUS45 KABQ 270053
MTRABQ
METAR KABQ 270052Z 21005KT 10SM FEW080 SCT130 SCT250 24/03 A3005 RMK
AO2 SLP117 VIRGA W AND NW T02390028





000
SAUS45 KABQ 262355
MTRTCS
METAR KTCS 262353Z AUTO 15010KT 10SM CLR 27/M03 A2999 RMK AO2 SLP085
T02721033 10289 20233 56017 TSNO





000
SAUS45 KABQ 262355
MTRTCS
METAR KTCS 262353Z AUTO 15010KT 10SM CLR 27/M03 A2999 RMK AO2 SLP085
T02721033 10289 20233 56017 TSNO





000
SAUS45 KABQ 262353
MTRABQ
METAR KABQ 262352Z 19007KT 150V220 10SM FEW080 FEW160 SCT250 24/03
A3005 RMK AO2 SLP114 VIRGA W AND NW T02390033 10244 20183 56012





000
SAUS45 KABQ 262353
MTRABQ
METAR KABQ 262352Z 19007KT 150V220 10SM FEW080 FEW160 SCT250 24/03
A3005 RMK AO2 SLP114 VIRGA W AND NW T02390033 10244 20183 56012





000
SAUS45 KABQ 262254
MTRTCS
METAR KTCS 262253Z AUTO 18008KT 10SM CLR 27/M02 A3001 RMK AO2 PK WND
18028/2206 SLP089 T02721022 TSNO





000
SAUS45 KABQ 262254
MTRTCS
METAR KTCS 262253Z AUTO 18008KT 10SM CLR 27/M02 A3001 RMK AO2 PK WND
18028/2206 SLP089 T02721022 TSNO





000
SAUS45 KABQ 262252
MTRABQ
METAR KABQ 262252Z VRB03KT 10SM FEW080 SCT160 SCT250 24/04 A3006 RMK
AO2 SLP121 T02390039





000
SAUS45 KABQ 262252
MTRABQ
METAR KABQ 262252Z VRB03KT 10SM FEW080 SCT160 SCT250 24/04 A3006 RMK
AO2 SLP121 T02390039





000
SAUS45 KABQ 262154
MTRTCS
METAR KTCS 262153Z AUTO 18008G23KT 10SM CLR 27/M01 A3002 RMK AO2
SLP091 T02721006 TSNO





000
SAUS45 KABQ 262153
MTRABQ
METAR KABQ 262152Z 22007KT 10SM SCT070 BKN190 BKN230 23/04 A3008 RMK
AO2 SLP124 CB DSNT NW TCU DSNT NE VCSH NW T02330044





000
SAUS45 KABQ 262054
MTRTCS
METAR KTCS 262053Z AUTO 22011KT 10SM CLR 27/01 A3005 RMK AO2 SLP099
T02670006 58017 TSNO





000
SAUS45 KABQ 262053
MTRABQ
METAR KABQ 262052Z VRB04KT 10SM SCT065 SCT200 BKN250 22/04 A3009 RMK
AO2 SLP131 TCU DSNT NW-N SHRA DSNT NW T02220044 58016





000
SAUS45 KABQ 262053
MTRABQ
METAR KABQ 262052Z VRB04KT 10SM SCT065 SCT200 BKN250 22/04 A3009 RMK
AO2 SLP131 TCU DSNT NW-N SHRA DSNT NW T02220044 58016





    US Dept of Commerce
    National Oceanic and Atmospheric Administration
    National Weather Service
    1325 East West Highway
    Silver Spring, MD 20910
    Page Author: NWS Internet Services Team
Disclaimer
Information Quality
Credits
Glossary
Privacy Policy
Freedom of Information Act (FOIA)
About Us
Career Opportunities